Time;durP1;ratioP1;P1;durP2;ratioP2;P2;SDS_P1;SDS_P2;PMS_P1;PMS_P2;Temp;Humidity;BMP_temperature;BMP_pressure;BME280_temperature;BME280_humidity;BME280_pressure;Samples;Min_cycle;Max_cycle;Signal;HPM_P1;HPM_P2
2022/11/08 00:01:38;;;;;;;13.55;3.45;;;12.60;99.90;;;;;;4962185;28;20412;-80
2022/11/08 00:04:12;;;;;;;8.40;3.67;;;12.60;99.90;;;;;;4994061;28;20055;-80
2022/11/08 00:14:52;;;;;;;13.13;4.50;;;12.60;99.90;;;;;;4961514;28;20078;-81
2022/11/08 00:17:20;;;;;;;14.70;4.60;;;12.50;99.90;;;;;;4961935;28;20049;-80
2022/11/08 00:19:45;;;;;;;17.58;4.57;;;12.70;99.90;;;;;;4999982;28;20046;-79
2022/11/08 00:22:11;;;;;;;13.57;4.18;;;12.50;99.90;;;;;;4967462;28;20432;-80
2022/11/08 00:24:37;;;;;;;14.30;4.80;;;12.50;99.90;;;;;;4962616;28;20053;-80
2022/11/08 00:27:05;;;;;;;14.50;4.10;;;12.70;99.90;;;;;;4996092;28;20035;-79
2022/11/08 00:29:34;;;;;;;13.77;3.33;;;12.70;99.90;;;;;;4965960;28;20081;-80
2022/11/08 00:31:59;;;;;;;9.25;3.75;;;12.50;99.90;;;;;;4980599;28;20058;-79
2022/11/08 00:34:25;;;;;;;12.13;3.13;;;12.50;99.90;;;;;;4996462;28;20404;-79
2022/11/08 00:36:52;;;;;;;12.38;4.95;;;12.50;99.90;;;;;;4996490;28;20045;-79
2022/11/08 00:39:18;;;;;;;10.73;3.67;;;12.50;99.90;;;;;;4997194;28;20059;-79
2022/11/08 00:41:44;;;;;;;17.83;4.03;;;12.60;99.90;;;;;;4964496;28;20049;-80
2022/11/08 00:44:09;;;;;;;19.60;3.90;;;12.60;99.90;;;;;;4965283;28;20035;-80
2022/11/08 00:46:36;;;;;;;10.90;2.80;;;12.80;99.90;;;;;;4973408;28;20042;-79
2022/11/08 00:49:02;;;;;;;11.65;3.90;;;12.50;99.90;;;;;;5003513;28;20047;-79
2022/11/08 00:51:27;;;;;;;7.75;3.08;;;12.80;99.90;;;;;;4982807;28;20468;-79
2022/11/08 00:53:53;;;;;;;13.85;4.03;;;12.60;99.90;;;;;;4997210;28;20050;-79
2022/11/08 00:56:18;;;;;;;10.20;3.15;;;12.70;99.90;;;;;;4997398;28;20081;-80
2022/11/08 00:58:44;;;;;;;12.45;3.83;;;12.80;99.90;;;;;;4997271;28;20039;-80
2022/11/08 01:01:11;;;;;;;8.93;3.00;;;12.70;99.90;;;;;;4982204;28;20038;-80
2022/11/08 01:03:37;;;;;;;10.30;3.65;;;12.60;99.90;;;;;;4964111;28;20046;-79
2022/11/08 01:06:04;;;;;;;9.57;3.58;;;12.70;99.90;;;;;;4996916;28;20050;-79
2022/11/08 01:08:30;;;;;;;10.30;3.92;;;12.70;99.90;;;;;;4962946;28;20072;-80
2022/11/08 01:11:00;;;;;;;13.68;4.10;;;12.70;99.90;;;;;;4995418;28;20042;-80
2022/11/08 01:13:25;;;;;;;12.65;4.25;;;12.50;99.90;;;;;;4995654;28;20116;-79
2022/11/08 01:15:51;;;;;;;10.77;3.22;;;12.70;99.90;;;;;;4996423;28;20070;-79
2022/11/08 01:18:16;;;;;;;11.75;3.42;;;12.60;99.90;;;;;;4996399;28;20051;-80
2022/11/08 01:20:43;;;;;;;12.35;3.20;;;12.70;99.90;;;;;;4964055;28;20093;-80
2022/11/08 01:23:10;;;;;;;12.20;3.60;;;12.70;99.90;;;;;;4996000;28;20050;-80
2022/11/08 01:25:42;;;;;;;8.63;3.42;;;12.50;99.90;;;;;;4980694;28;20456;-81
2022/11/08 01:28:08;;;;;;;12.95;3.30;;;12.60;99.90;;;;;;4964313;28;20133;-80
2022/11/08 01:30:38;;;;;;;12.82;3.97;;;12.40;99.90;;;;;;4995712;28;20467;-79
2022/11/08 01:33:04;;;;;;;11.23;4.00;;;12.30;99.90;;;;;;4995876;28;20102;-79
2022/11/08 01:35:31;;;;;;;11.13;4.10;;;12.30;99.90;;;;;;4963868;28;20065;-80
2022/11/08 01:38:00;;;;;;;13.93;3.33;;;12.30;99.90;;;;;;4963945;28;20057;-80
2022/11/08 01:40:27;;;;;;;11.68;3.20;;;12.20;99.90;;;;;;4995952;28;20039;-80
2022/11/08 01:42:53;;;;;;;12.52;2.88;;;12.40;99.90;;;;;;4996287;28;20505;-80
2022/11/08 01:45:56;;;;;;;11.93;3.20;;;12.30;99.90;;;;;;4969370;28;20034;-80
2022/11/08 01:48:24;;;;;;;10.25;2.90;;;12.20;99.90;;;;;;4970194;28;20042;-80
2022/11/08 01:50:51;;;;;;;12.95;3.22;;;12.30;99.90;;;;;;5004665;28;20097;-79
2022/11/08 01:53:18;;;;;;;12.85;3.00;;;12.10;99.90;;;;;;5001579;28;20035;-79
2022/11/08 01:55:45;;;;;;;10.40;3.53;;;12.10;99.90;;;;;;4981736;28;20038;-79
2022/11/08 01:58:20;;;;;;;12.02;3.58;;;12.10;99.90;;;;;;4981490;28;20070;-80
2022/11/08 02:00:45;;;;;;;14.70;3.63;;;12.00;99.90;;;;;;4996796;28;20050;-80
2022/11/08 02:03:15;;;;;;;13.65;3.25;;;12.30;99.90;;;;;;4996716;28;20034;-80
2022/11/08 02:05:41;;;;;;;10.57;3.53;;;12.10;99.90;;;;;;4996494;28;20035;-80
2022/11/08 02:08:13;;;;;;;10.75;3.35;;;12.20;99.90;;;;;;4964018;28;20039;-80
2022/11/08 02:10:41;;;;;;;15.75;3.10;;;12.20;99.90;;;;;;4964179;28;20070;-80
2022/11/08 02:13:17;;;;;;;8.68;3.03;;;12.30;99.90;;;;;;4996314;28;20078;-80
2022/11/08 02:15:43;;;;;;;11.73;3.97;;;12.10;99.90;;;;;;4960237;28;20043;-80
2022/11/08 02:18:09;;;;;;;9.15;3.17;;;12.20;99.90;;;;;;4980150;28;20046;-80
2022/11/08 02:20:34;;;;;;;10.85;3.90;;;12.20;99.90;;;;;;4964001;28;20050;-79
2022/11/08 02:23:18;;;;;;;10.63;2.92;;;12.20;99.90;;;;;;4946487;28;20525;-80
2022/11/08 02:25:43;;;;;;;11.30;3.05;;;12.20;99.90;;;;;;4963752;28;20035;-80
2022/11/08 02:28:09;;;;;;;9.35;3.58;;;12.20;99.90;;;;;;4964125;28;20085;-80
2022/11/08 02:30:36;;;;;;;11.52;3.08;;;12.10;99.90;;;;;;4962954;28;20053;-79
2022/11/08 02:33:20;;;;;;;8.30;3.20;;;12.00;99.90;;;;;;4963265;28;20043;-80
2022/11/08 02:35:49;;;;;;;8.57;3.50;;;12.00;99.90;;;;;;4963536;28;20051;-80
2022/11/08 02:38:16;;;;;;;10.10;2.83;;;11.90;99.90;;;;;;4963011;28;20057;-79
2022/11/08 02:40:45;;;;;;;10.13;3.30;;;11.90;99.90;;;;;;4980400;28;20070;-79
2022/11/08 02:43:10;;;;;;;13.25;3.33;;;11.90;99.90;;;;;;4963279;28;20042;-80
2022/11/08 02:45:36;;;;;;;8.30;2.92;;;11.90;99.90;;;;;;4963732;28;20034;-80
2022/11/08 02:48:02;;;;;;;8.48;2.88;;;12.00;99.90;;;;;;4963321;28;20088;-80
2022/11/08 02:50:27;;;;;;;11.35;3.58;;;11.90;99.90;;;;;;4962814;28;20073;-80
2022/11/08 02:52:52;;;;;;;14.90;3.45;;;11.90;99.90;;;;;;4968931;28;20042;-80
2022/11/08 02:55:18;;;;;;;11.30;3.50;;;11.70;99.90;;;;;;4969335;28;20045;-80
2022/11/08 02:57:43;;;;;;;12.30;3.47;;;11.70;99.90;;;;;;4963914;28;20416;-80
2022/11/08 03:00:10;;;;;;;7.97;3.13;;;11.90;99.90;;;;;;4963939;28;20098;-80
2022/11/08 03:02:35;;;;;;;8.15;3.13;;;11.70;99.90;;;;;;4964266;28;20066;-80
2022/11/08 03:05:01;;;;;;;13.55;3.70;;;11.60;99.90;;;;;;4964028;28;20046;-80
2022/11/08 03:07:26;;;;;;;9.15;3.17;;;11.80;99.90;;;;;;4963418;28;20088;-80
2022/11/08 03:09:52;;;;;;;10.20;3.85;;;11.80;99.90;;;;;;4962825;28;20655;-80
2022/11/08 03:12:19;;;;;;;15.57;3.80;;;11.60;99.90;;;;;;4968978;28;20496;-80
2022/11/08 03:14:44;;;;;;;14.05;4.07;;;11.60;99.90;;;;;;4970861;28;20050;-80
2022/11/08 03:17:10;;;;;;;9.52;3.00;;;11.70;99.90;;;;;;4947396;28;20097;-80
2022/11/08 03:19:35;;;;;;;14.35;3.22;;;11.60;99.90;;;;;;4979878;28;20058;-80
2022/11/08 03:22:01;;;;;;;17.85;3.80;;;11.60;99.90;;;;;;4980629;28;20398;-80
2022/11/08 03:24:26;;;;;;;8.77;3.20;;;11.70;99.90;;;;;;4963056;28;20039;-80
2022/11/08 03:26:52;;;;;;;19.65;3.47;;;11.70;99.90;;;;;;4979777;28;20046;-81
2022/11/08 03:29:17;;;;;;;7.13;3.00;;;11.50;99.90;;;;;;4963159;28;20378;-80
2022/11/08 03:31:43;;;;;;;13.00;3.75;;;11.50;99.90;;;;;;4962602;28;20054;-80
2022/11/08 03:34:09;;;;;;;7.78;3.00;;;11.50;99.90;;;;;;4962359;28;20085;-80
2022/11/08 03:36:35;;;;;;;11.45;3.58;;;11.70;99.90;;;;;;4947045;28;20053;-80
2022/11/08 03:39:00;;;;;;;10.57;3.38;;;11.60;99.90;;;;;;4979415;28;20054;-80
2022/11/08 03:41:26;;;;;;;8.63;2.80;;;11.60;99.90;;;;;;4979501;28;20062;-80
2022/11/08 03:43:51;;;;;;;16.27;4.25;;;11.70;99.90;;;;;;4962332;28;20034;-80
2022/11/08 03:46:17;;;;;;;9.50;3.30;;;11.60;99.90;;;;;;4979680;28;20106;-80
2022/11/08 03:48:42;;;;;;;9.95;3.30;;;11.50;99.90;;;;;;4978619;28;20125;-80
2022/11/08 03:51:08;;;;;;;14.05;3.28;;;11.50;99.90;;;;;;4961310;28;20073;-80
2022/11/08 03:53:33;;;;;;;12.32;3.20;;;11.50;99.90;;;;;;4961366;28;20469;-80
2022/11/08 03:56:00;;;;;;;10.20;3.33;;;11.60;99.90;;;;;;4967841;28;20070;-80
2022/11/08 03:58:26;;;;;;;9.38;3.35;;;11.40;99.90;;;;;;4972997;28;20062;-80
2022/11/08 04:00:51;;;;;;;8.95;2.63;;;11.50;99.90;;;;;;4968168;28;20513;-80
2022/11/08 04:03:17;;;;;;;7.03;3.13;;;11.50;99.90;;;;;;4969109;28;20125;-80
2022/11/08 04:05:42;;;;;;;6.35;3.00;;;11.50;99.90;;;;;;4970233;28;20070;-80
2022/11/08 04:08:08;;;;;;;10.82;3.90;;;11.50;99.90;;;;;;4969874;28;20043;-79
2022/11/08 04:10:33;;;;;;;9.77;3.13;;;11.40;99.90;;;;;;4952295;28;20043;-80
2022/11/08 04:15:46;;;;;;;11.55;3.50;;;11.60;99.90;;;;;;4967806;28;20043;-80
2022/11/08 04:21:17;;;;;;;8.63;3.45;;;11.50;99.90;;;;;;4984345;28;20050;-80
2022/11/08 04:23:44;;;;;;;12.48;3.13;;;11.40;99.90;;;;;;4966000;28;20041;-81
2022/11/08 04:26:12;;;;;;;12.05;3.63;;;11.50;99.90;;;;;;4983489;28;20039;-80
2022/11/08 04:28:39;;;;;;;9.70;3.50;;;11.50;99.90;;;;;;4966274;28;20066;-80
2022/11/08 04:31:17;;;;;;;11.52;3.22;;;11.40;99.90;;;;;;4966365;28;20385;-80
2022/11/08 04:33:43;;;;;;;13.15;3.67;;;11.30;99.90;;;;;;4967137;28;20038;-80
2022/11/08 04:36:11;;;;;;;10.18;2.95;;;11.40;99.90;;;;;;4967584;28;20049;-80
2022/11/08 04:38:37;;;;;;;7.28;2.55;;;11.50;99.90;;;;;;4968177;28;20085;-80
2022/11/08 04:41:11;;;;;;;13.05;3.45;;;11.30;99.90;;;;;;4975419;28;20042;-81
2022/11/08 04:43:37;;;;;;;11.20;3.92;;;11.30;99.90;;;;;;4968668;28;20038;-80
2022/11/08 04:46:05;;;;;;;8.25;2.90;;;11.30;99.90;;;;;;4967642;28;20035;-81
2022/11/08 04:48:31;;;;;;;7.20;3.08;;;11.30;99.90;;;;;;4966890;28;20043;-81
2022/11/08 04:51:06;;;;;;;9.13;3.20;;;11.20;99.90;;;;;;4966250;28;20039;-81
2022/11/08 04:53:32;;;;;;;9.88;3.15;;;11.20;99.90;;;;;;4950224;28;20038;-81
2022/11/08 04:56:03;;;;;;;12.60;3.95;;;11.40;99.90;;;;;;4965748;28;20058;-81
2022/11/08 04:58:33;;;;;;;13.07;3.45;;;11.40;99.90;;;;;;4949665;28;20049;-81
2022/11/08 05:01:00;;;;;;;8.90;2.95;;;11.50;99.90;;;;;;4990313;28;20041;-81
2022/11/08 05:03:26;;;;;;;13.25;2.90;;;11.50;99.90;;;;;;4969582;28;20039;-81
2022/11/08 05:05:51;;;;;;;10.20;3.38;;;11.60;99.90;;;;;;4966249;28;20066;-81
2022/11/08 05:08:17;;;;;;;7.00;2.47;;;11.40;99.90;;;;;;4967316;28;20050;-81
2022/11/08 05:10:42;;;;;;;9.52;2.72;;;11.60;99.90;;;;;;4950197;28;20129;-81
2022/11/08 05:13:08;;;;;;;8.88;3.10;;;11.50;99.90;;;;;;4964699;28;20129;-81
2022/11/08 05:15:34;;;;;;;9.10;2.97;;;11.40;99.90;;;;;;4966330;28;20169;-82
2022/11/08 05:18:00;;;;;;;6.28;2.95;;;11.50;99.90;;;;;;4966682;28;20053;-82
2022/11/08 05:23:25;;;;;;;8.38;3.00;;;11.30;99.90;;;;;;4965572;28;20046;-81
2022/11/08 05:25:52;;;;;;;6.03;2.55;;;11.40;99.90;;;;;;4949191;28;20031;-82
2022/11/08 05:28:18;;;;;;;9.25;3.25;;;11.10;99.90;;;;;;4964339;28;20063;-82
2022/11/08 05:30:43;;;;;;;8.93;2.65;;;11.20;99.90;;;;;;4965036;28;20047;-82
2022/11/08 05:33:09;;;;;;;11.98;3.63;;;11.30;99.90;;;;;;4963903;28;20039;-81
2022/11/08 05:35:35;;;;;;;10.25;3.70;;;11.20;99.90;;;;;;4948708;28;20416;-82
2022/11/08 05:38:00;;;;;;;8.15;2.97;;;11.20;99.90;;;;;;4964275;28;20047;-82
2022/11/08 05:40:26;;;;;;;7.65;3.42;;;11.30;99.90;;;;;;4964431;28;20054;-82
2022/11/08 05:42:53;;;;;;;6.47;2.85;;;11.00;99.90;;;;;;4963400;28;20038;-81
2022/11/08 05:45:19;;;;;;;8.35;2.55;;;10.90;99.90;;;;;;4965759;28;20034;-82
2022/11/08 05:47:45;;;;;;;13.48;3.00;;;11.10;99.90;;;;;;4984773;28;20496;-81
2022/11/08 05:50:11;;;;;;;8.40;3.22;;;11.00;99.90;;;;;;4965606;28;20042;-82
2022/11/08 05:52:37;;;;;;;7.70;3.05;;;11.10;99.90;;;;;;4964215;28;20497;-82
2022/11/08 05:55:03;;;;;;;8.48;2.80;;;11.00;99.90;;;;;;4965512;28;20121;-82
2022/11/08 05:57:28;;;;;;;12.45;3.22;;;10.90;99.90;;;;;;4964561;28;20043;-83
2022/11/08 05:59:54;;;;;;;10.30;3.20;;;11.00;99.90;;;;;;4965670;28;20127;-82
2022/11/08 06:02:19;;;;;;;12.45;3.92;;;11.00;99.90;;;;;;4949795;28;20034;-82
2022/11/08 06:04:45;;;;;;;8.43;2.67;;;10.90;99.90;;;;;;4965277;28;20050;-82
2022/11/08 06:07:10;;;;;;;9.38;3.55;;;11.00;99.90;;;;;;4968907;28;20041;-83
2022/11/08 06:09:36;;;;;;;8.35;3.20;;;10.80;99.90;;;;;;4973765;28;20053;-83
2022/11/08 06:12:01;;;;;;;12.63;3.80;;;10.90;99.90;;;;;;4971452;28;20039;-82
2022/11/08 06:14:27;;;;;;;8.73;3.08;;;10.90;99.90;;;;;;4950070;28;20061;-83
2022/11/08 06:16:52;;;;;;;7.88;3.67;;;10.70;99.90;;;;;;4965221;28;20047;-83
2022/11/08 06:19:18;;;;;;;7.97;3.83;;;10.60;99.90;;;;;;4981021;28;20039;-82
2022/11/08 06:21:43;;;;;;;10.57;3.65;;;10.70;99.90;;;;;;4962591;28;20035;-83
2022/11/08 06:24:09;;;;;;;12.90;3.58;;;10.80;99.90;;;;;;4962305;28;20046;-83
2022/11/08 06:26:34;;;;;;;8.30;3.40;;;10.70;99.90;;;;;;4962574;28;20039;-83
2022/11/08 06:29:00;;;;;;;10.43;3.50;;;10.70;99.90;;;;;;4962912;28;20492;-83
2022/11/08 06:31:25;;;;;;;7.70;3.42;;;10.60;99.90;;;;;;4961969;28;20042;-83
2022/11/08 06:33:51;;;;;;;8.48;3.38;;;10.70;99.90;;;;;;4962241;28;20050;-83
2022/11/08 06:36:17;;;;;;;11.25;3.15;;;10.60;99.90;;;;;;4947687;28;20492;-82
2022/11/08 06:38:42;;;;;;;11.20;3.83;;;10.70;99.90;;;;;;4964189;28;20129;-82
2022/11/08 06:41:15;;;;;;;13.60;3.60;;;10.50;99.90;;;;;;4980936;28;20047;-84
2022/11/08 06:43:44;;;;;;;6.93;3.40;;;10.50;99.90;;;;;;4964386;28;20064;-82
2022/11/08 06:46:09;;;;;;;10.68;3.55;;;10.50;99.90;;;;;;4964596;28;20042;-81
2022/11/08 06:48:35;;;;;;;7.07;3.28;;;10.50;99.90;;;;;;4964596;28;20054;-81
2022/11/08 06:51:00;;;;;;;8.82;3.80;;;10.60;99.90;;;;;;4963676;28;20084;-81
2022/11/08 06:53:26;;;;;;;10.77;3.90;;;10.70;99.90;;;;;;4963678;28;20065;-82
2022/11/08 06:55:52;;;;;;;8.25;3.40;;;10.60;99.90;;;;;;4963736;28;20145;-82
2022/11/08 06:58:17;;;;;;;14.60;5.53;;;10.50;99.90;;;;;;4982158;28;20043;-82
2022/11/08 07:00:43;;;;;;;18.05;8.48;;;10.70;99.90;;;;;;4965200;28;20082;-82
2022/11/08 07:03:09;;;;;;;17.27;8.27;;;10.60;99.90;;;;;;4965039;28;20519;-82
2022/11/08 07:05:34;;;;;;;12.50;6.22;;;10.60;99.90;;;;;;4963456;28;20031;-82
2022/11/08 07:08:00;;;;;;;13.05;7.72;;;10.50;99.90;;;;;;4961882;28;20038;-81
2022/11/08 07:10:29;;;;;;;10.40;4.75;;;10.60;99.90;;;;;;4963807;28;20045;-82
2022/11/08 07:13:06;;;;;;;14.63;4.90;;;10.50;99.90;;;;;;4963545;28;20039;-82
2022/11/08 07:15:33;;;;;;;9.32;5.30;;;10.50;99.90;;;;;;4948514;28;20053;-82
2022/11/08 07:18:01;;;;;;;9.73;5.35;;;10.60;99.90;;;;;;4963511;28;20041;-82
2022/11/08 07:20:27;;;;;;;12.32;5.97;;;10.60;99.90;;;;;;4963770;28;20039;-82
2022/11/08 07:22:54;;;;;;;13.27;5.10;;;10.60;99.90;;;;;;4962670;28;20493;-82
2022/11/08 07:25:20;;;;;;;9.95;4.80;;;10.60;99.90;;;;;;4946862;28;20078;-82
2022/11/08 07:27:45;;;;;;;11.18;4.80;;;10.70;99.90;;;;;;4963226;28;20042;-82
2022/11/08 07:30:11;;;;;;;16.08;4.63;;;10.80;99.90;;;;;;4962441;28;20043;-82
2022/11/08 07:32:37;;;;;;;10.27;4.07;;;10.90;99.90;;;;;;4961792;28;20047;-82
2022/11/08 07:35:03;;;;;;;8.13;3.95;;;10.90;99.90;;;;;;4972464;28;20054;-82
2022/11/08 07:37:29;;;;;;;11.13;4.90;;;10.80;99.90;;;;;;4971455;28;20129;-81
2022/11/08 07:39:54;;;;;;;7.45;3.90;;;10.80;99.90;;;;;;4985366;28;20050;-82
2022/11/08 07:42:20;;;;;;;8.82;3.95;;;10.80;99.90;;;;;;4967406;28;20102;-82
2022/11/08 07:44:45;;;;;;;10.20;5.68;;;11.00;99.90;;;;;;4983609;28;20047;-82
2022/11/08 07:47:11;;;;;;;8.95;4.10;;;10.80;99.90;;;;;;4966127;28;20042;-82
2022/11/08 07:49:36;;;;;;;7.97;4.07;;;11.10;99.90;;;;;;4982190;28;20043;-81
2022/11/08 07:52:02;;;;;;;10.13;4.47;;;10.90;99.90;;;;;;4949964;28;20102;-81
2022/11/08 07:54:27;;;;;;;7.95;4.20;;;10.90;99.90;;;;;;4965299;28;20046;-81
2022/11/08 07:56:53;;;;;;;7.78;3.72;;;11.10;99.90;;;;;;4982067;28;20090;-84
2022/11/08 07:59:18;;;;;;;10.52;4.13;;;11.00;99.90;;;;;;4952772;28;20051;-85
2022/11/08 08:01:44;;;;;;;11.15;3.88;;;11.10;99.90;;;;;;4970243;28;20061;-84
2022/11/08 08:04:11;;;;;;;8.80;3.65;;;11.20;99.90;;;;;;4969988;28;20107;-86
2022/11/08 08:06:36;;;;;;;7.78;3.88;;;11.20;99.90;;;;;;4968622;28;20066;-84
2022/11/08 08:09:03;;;;;;;6.13;3.80;;;11.40;99.90;;;;;;4986941;28;20042;-85
2022/11/08 08:11:28;;;;;;;6.50;3.90;;;11.20;99.90;;;;;;4967018;28;20047;-85
2022/11/08 08:13:55;;;;;;;7.53;3.22;;;11.30;99.90;;;;;;4965560;28;20038;-85
2022/11/08 08:16:21;;;;;;;8.27;3.10;;;11.50;99.90;;;;;;4968212;28;20456;-85
2022/11/08 08:18:49;;;;;;;10.70;4.00;;;11.60;99.90;;;;;;4985017;28;20067;-85
2022/11/08 08:21:14;;;;;;;9.75;2.95;;;11.70;99.90;;;;;;4966199;28;20074;-85
2022/11/08 08:23:40;;;;;;;5.30;2.63;;;11.70;99.90;;;;;;4965227;28;20050;-85
2022/11/08 08:26:06;;;;;;;11.77;2.88;;;11.80;99.90;;;;;;4964807;28;20035;-87
2022/11/08 08:28:31;;;;;;;3.50;2.40;;;11.80;99.90;;;;;;4982360;28;20050;-85
2022/11/08 08:30:57;;;;;;;6.47;2.40;;;11.70;99.90;;;;;;4962805;28;20073;-85
2022/11/08 08:33:22;;;;;;;6.93;2.63;;;11.70;99.90;;;;;;4963445;28;20039;-85
2022/11/08 08:35:50;;;;;;;6.60;2.72;;;11.90;99.90;;;;;;4964798;28;20047;-85
2022/11/08 08:38:15;;;;;;;10.38;3.00;;;11.80;99.90;;;;;;4963582;28;20378;-85
2022/11/08 08:40:41;;;;;;;7.47;2.47;;;12.00;99.90;;;;;;4965027;28;20047;-85
2022/11/08 08:43:07;;;;;;;9.43;2.40;;;12.10;99.90;;;;;;4978948;28;20053;-84
2022/11/08 08:45:34;;;;;;;8.95;2.70;;;12.00;99.90;;;;;;4983163;28;20134;-85
2022/11/08 08:47:59;;;;;;;10.98;2.92;;;12.20;99.90;;;;;;4964735;28;20527;-85
2022/11/08 08:50:27;;;;;;;6.45;2.20;;;12.10;99.90;;;;;;4966799;28;20130;-85
2022/11/08 08:53:00;;;;;;;6.63;2.05;;;12.20;99.90;;;;;;4967838;28;20125;-86
2022/11/08 08:55:26;;;;;;;12.50;2.58;;;12.30;99.90;;;;;;4968795;28;20053;-85
2022/11/08 08:57:51;;;;;;;15.52;7.45;;;12.40;99.90;;;;;;4967308;28;20042;-84
2022/11/08 09:00:18;;;;;;;19.95;10.43;;;12.40;99.90;;;;;;4967747;28;20115;-85
2022/11/08 09:02:44;;;;;;;17.02;8.85;;;12.40;99.90;;;;;;4968652;28;20118;-86
2022/11/08 09:05:11;;;;;;;7.15;4.30;;;12.30;99.90;;;;;;4973542;28;20042;-86
2022/11/08 09:07:38;;;;;;;7.13;2.97;;;12.50;99.90;;;;;;4972872;28;20053;-86
2022/11/08 09:10:05;;;;;;;4.45;2.35;;;12.50;99.90;;;;;;4969677;28;20051;-86
2022/11/08 09:12:32;;;;;;;7.60;2.80;;;12.50;99.90;;;;;;4965542;28;20066;-85
2022/11/08 09:14:57;;;;;;;6.43;3.35;;;12.60;99.90;;;;;;4967268;28;20041;-82
2022/11/08 09:17:23;;;;;;;7.55;2.50;;;12.60;99.90;;;;;;4968283;28;20083;-85
2022/11/08 09:19:48;;;;;;;3.75;2.33;;;12.60;99.90;;;;;;4999641;28;20042;-84
2022/11/08 09:22:14;;;;;;;10.48;3.88;;;12.80;99.90;;;;;;4999206;28;20058;-85
2022/11/08 09:24:39;;;;;;;7.80;3.53;;;12.80;99.90;;;;;;4969209;28;20035;-85
2022/11/08 09:27:05;;;;;;;5.38;2.40;;;12.70;99.90;;;;;;4968658;28;20049;-85
2022/11/08 09:29:32;;;;;;;3.85;2.28;;;12.90;99.90;;;;;;5000439;28;20045;-85
2022/11/08 09:31:58;;;;;;;9.63;2.33;;;12.80;99.90;;;;;;4966916;28;20055;-85
2022/11/08 09:34:23;;;;;;;3.33;1.90;;;12.90;99.90;;;;;;4967847;28;20107;-84
2022/11/08 09:36:49;;;;;;;4.88;1.70;;;13.00;99.90;;;;;;4968707;28;20102;-84
2022/11/08 09:39:15;;;;;;;9.15;1.90;;;13.00;99.90;;;;;;5001862;28;20042;-82
2022/11/08 09:42:06;;;;;;;5.15;2.50;;;13.20;99.90;;;;;;4968826;28;20035;-81
2022/11/08 09:45:02;;;;;;;6.40;1.73;;;13.20;99.90;;;;;;4967115;28;20047;-81
2022/11/08 09:47:33;;;;;;;4.22;1.88;;;13.40;99.90;;;;;;4965408;28;20101;-81
2022/11/08 09:50:20;;;;;;;5.53;1.50;;;13.50;99.90;;;;;;4968357;28;20050;-81
2022/11/08 09:53:12;;;;;;;3.47;1.92;;;13.40;99.90;;;;;;4967445;28;20066;-82
2022/11/08 09:55:46;;;;;;;3.83;1.92;;;13.50;99.90;;;;;;4965680;28;20093;-84
2022/11/08 09:58:25;;;;;;;4.07;1.75;;;13.60;99.90;;;;;;4973200;28;20052;-83
2022/11/08 10:00:52;;;;;;;2.53;1.50;;;13.70;99.90;;;;;;5004216;28;20046;-82
2022/11/08 10:03:20;;;;;;;3.45;1.50;;;13.60;99.90;;;;;;4998964;28;20074;-79
2022/11/08 10:06:14;;;;;;;4.88;1.92;;;13.70;99.90;;;;;;4967849;28;20041;-83
2022/11/08 10:08:45;;;;;;;;;;;13.80;99.90;;;;;;4968998;28;20049;-82
2022/11/08 10:11:39;;;;;;;3.78;1.70;;;13.80;99.90;;;;;;4986582;28;20323;-80
2022/11/08 10:14:27;;;;;;;5.10;1.90;;;13.80;99.90;;;;;;4982892;28;20054;-81
2022/11/08 10:17:20;;;;;;;3.78;2.10;;;13.80;99.90;;;;;;4979372;28;20031;-76
2022/11/08 10:19:54;;;;;;;6.47;1.80;;;13.80;99.90;;;;;;4966117;28;20047;-79
2022/11/08 10:22:56;;;;;;;6.28;2.63;;;13.80;99.90;;;;;;4978395;28;20045;-80
2022/11/08 10:25:48;;;;;;;6.20;2.10;;;13.80;99.90;;;;;;4993385;28;20031;-82
2022/11/08 10:28:25;;;;;;;7.57;2.00;;;13.90;99.90;;;;;;4986478;28;20140;-81
2022/11/08 10:30:52;;;;;;;7.90;3.10;;;13.90;99.90;;;;;;4986537;28;20043;-80
2022/11/08 10:33:40;;;;;;;6.40;2.00;;;13.90;99.90;;;;;;4985787;28;20042;-82
2022/11/08 10:36:13;;;;;;;3.55;1.60;;;13.90;99.90;;;;;;4998801;28;20039;-76
2022/11/08 10:38:48;;;;;;;4.50;1.65;;;13.90;99.90;;;;;;4970979;28;20107;-82
2022/11/08 10:41:20;;;;;;;5.05;2.00;;;13.90;99.90;;;;;;4977671;28;20074;-82
2022/11/08 10:43:51;;;;;;;5.10;2.20;;;13.80;99.90;;;;;;4975061;28;20039;-82
2022/11/08 10:46:35;;;;;;;6.55;2.20;;;13.90;99.90;;;;;;4991134;28;20459;-82
2022/11/08 10:49:11;;;;;;;6.00;1.85;;;13.90;99.90;;;;;;4938952;28;20138;-82
2022/11/08 10:51:37;;;;;;;6.25;1.95;;;13.90;99.90;;;;;;4944002;28;20050;-82
2022/11/08 10:54:02;;;;;;;3.50;2.03;;;13.90;99.90;;;;;;4948552;28;20034;-82
2022/11/08 10:56:28;;;;;;;7.18;2.28;;;13.90;99.90;;;;;;4959489;28;20106;-82
2022/11/08 10:58:53;;;;;;;7.88;2.70;;;13.90;99.90;;;;;;4964511;28;20086;-82
2022/11/08 11:01:24;;;;;;;3.60;1.67;;;13.80;99.90;;;;;;4980019;28;20030;-82
2022/11/08 11:03:52;;;;;;;4.28;1.80;;;13.80;99.90;;;;;;4958856;28;20421;-83
2022/11/08 11:06:31;;;;;;;6.80;2.00;;;13.80;99.90;;;;;;4984405;28;20039;-82
2022/11/08 11:09:15;;;;;;;3.45;1.67;;;13.80;99.90;;;;;;4952795;28;20073;-82
2022/11/08 11:11:41;;;;;;;6.30;1.80;;;13.80;99.90;;;;;;4951096;29;20470;-82
2022/11/08 11:14:14;;;;;;;5.60;1.75;;;13.70;99.90;;;;;;4982546;28;20102;-82
2022/11/08 11:16:51;;;;;;;4.03;2.08;;;13.70;99.90;;;;;;4984346;28;20097;-83
2022/11/08 11:19:16;;;;;;;6.53;2.20;;;13.60;99.90;;;;;;4971782;28;20043;-83
2022/11/08 11:21:43;;;;;;;3.72;1.75;;;13.70;99.90;;;;;;4983544;28;20037;-84
2022/11/08 11:24:17;;;;;;;4.13;2.03;;;13.60;99.90;;;;;;4980057;28;20094;-83
2022/11/08 11:26:47;;;;;;;2.92;1.75;;;13.70;99.90;;;;;;4956307;28;20568;-82
2022/11/08 11:29:21;;;;;;;4.00;1.70;;;13.70;99.90;;;;;;4964380;28;20067;-82
2022/11/08 11:31:49;;;;;;;4.05;1.75;;;13.70;99.90;;;;;;4950553;28;20567;-83
2022/11/08 11:34:18;;;;;;;10.45;2.58;;;13.70;99.90;;;;;;4988166;28;20112;-82
2022/11/08 11:36:51;;;;;;;5.72;1.95;;;13.90;99.90;;;;;;4956224;28;20415;-84
2022/11/08 11:39:53;;;;;;;5.25;2.10;;;13.90;99.90;;;;;;4989219;28;20047;-82
2022/11/08 11:42:26;;;;;;;2.10;1.50;;;14.00;99.90;;;;;;4949152;28;20093;-82
2022/11/08 11:45:16;;;;;;;6.82;1.77;;;14.10;99.90;;;;;;4959895;28;20046;-82
2022/11/08 11:47:54;;;;;;;7.72;2.15;;;14.00;99.90;;;;;;4937275;28;20043;-83
2022/11/08 11:50:33;;;;;;;5.55;1.90;;;14.20;99.90;;;;;;4953907;28;20053;-83
2022/11/08 11:53:03;;;;;;;2.92;1.45;;;14.20;99.90;;;;;;4973260;28;20052;-83
2022/11/08 11:55:36;;;;;;;5.15;2.10;;;14.20;99.90;;;;;;4961965;28;20039;-82
2022/11/08 11:58:18;;;;;;;4.63;1.75;;;14.20;99.90;;;;;;4961765;28;20051;-81
2022/11/08 12:00:56;;;;;;;4.60;1.80;;;14.30;99.90;;;;;;4977127;28;20043;-83
2022/11/08 12:03:45;;;;;;;5.00;2.13;;;14.30;99.90;;;;;;4976699;28;20278;-82
2022/11/08 12:06:27;;;;;;;2.53;1.60;;;14.30;99.90;;;;;;4977176;28;20113;-82
2022/11/08 12:09:06;;;;;;;4.18;1.40;;;14.40;99.90;;;;;;4944442;28;20122;-82
2022/11/08 12:12:02;;;;;;;3.65;1.50;;;14.30;99.90;;;;;;4978075;28;20310;-83
2022/11/08 12:14:52;;;;;;;3.25;1.58;;;14.40;99.90;;;;;;4976269;28;20125;-81
2022/11/08 12:17:41;;;;;;;2.72;1.58;;;14.40;99.90;;;;;;4959838;28;20043;-82
2022/11/08 12:20:33;;;;;;;3.50;2.08;;;14.50;99.90;;;;;;4978219;28;20062;-82
2022/11/08 12:23:13;;;;;;;4.28;1.42;;;14.50;99.90;;;;;;4998204;28;20035;-82
2022/11/08 12:25:46;;;;;;;2.95;2.50;;;14.60;99.90;;;;;;4962758;28;20035;-84
2022/11/08 12:28:45;;;;;;;2.70;1.77;;;14.50;99.90;;;;;;4965450;28;20081;-84
2022/11/08 12:31:34;;;;;;;3.33;1.30;;;14.60;99.90;;;;;;4978896;28;20077;-83
2022/11/08 12:34:20;;;;;;;3.60;1.73;;;14.50;99.90;;;;;;4962328;28;20086;-74
2022/11/08 12:37:08;;;;;;;3.85;1.65;;;14.60;99.90;;;;;;4959097;28;20401;-74
2022/11/08 12:39:45;;;;;;;4.63;1.60;;;14.50;99.90;;;;;;4976144;28;20129;-74
2022/11/08 12:42:49;;;;;;;4.32;1.80;;;14.40;99.90;;;;;;4958541;28;20142;-75
2022/11/08 12:45:33;;;;;;;2.33;1.58;;;14.40;99.90;;;;;;4976013;28;20038;-75
2022/11/08 12:48:21;;;;;;;2.65;1.60;;;14.40;99.90;;;;;;4976199;28;20046;-75
2022/11/08 12:51:18;;;;;;;4.03;1.70;;;14.40;99.90;;;;;;4958553;28;20049;-75
2022/11/08 12:54:11;;;;;;;4.70;1.67;;;14.40;99.90;;;;;;4975583;28;20043;-75
2022/11/08 12:56:43;;;;;;;5.82;1.65;;;14.30;99.90;;;;;;4975882;28;20405;-75
2022/11/08 12:59:24;;;;;;;5.03;1.50;;;14.30;99.90;;;;;;4958299;28;20054;-75
2022/11/08 13:01:52;;;;;;;2.97;1.60;;;14.40;99.90;;;;;;4975614;28;20035;-75
2022/11/08 13:04:32;;;;;;;2.28;1.60;;;14.50;99.90;;;;;;4958579;28;20501;-75
2022/11/08 13:07:23;;;;;;;3.85;1.60;;;14.60;99.90;;;;;;4958719;28;20054;-75
2022/11/08 13:10:15;;;;;;;6.40;2.90;;;14.60;99.90;;;;;;4958369;28;20055;-75
2022/11/08 13:13:05;;;;;;;3.67;1.80;;;14.50;99.90;;;;;;4975298;28;20110;-75
2022/11/08 13:15:31;;;;;;;3.70;2.05;;;14.60;99.90;;;;;;4958151;28;20035;-75